Time;durP1;ratioP1;P1;durP2;ratioP2;P2;SDS_P1;SDS_P2;PMS_P1;PMS_P2;Temp;Humidity;BMP_temperature;BMP_pressure;BME280_temperature;BME280_humidity;BME280_pressure;Samples;Min_cycle;Max_cycle;Signal;HPM_P1;HPM_P2
2022/05/07 00:01:56;;;;;;;5.35;3.67;;;;;;;;;;4991904;28;20675;-83
2022/05/07 00:04:22;;;;;;;4.15;2.90;;;;;;;;;;5005251;28;20196;-81
2022/05/07 00:06:49;;;;;;;4.13;3.10;;;;;;;;;;5001049;28;20187;-81
2022/05/07 00:09:15;;;;;;;4.45;3.13;;;;;;;;;;4992177;28;20703;-81
2022/05/07 00:11:41;;;;;;;2.95;2.65;;;;;;;;;;4989311;28;20187;-81
2022/05/07 00:14:07;;;;;;;3.00;2.75;;;;;;;;;;4991496;28;20218;-81
2022/05/07 00:19:17;;;;;;;6.40;2.80;;;;;;;;;;5006843;28;20440;-81
2022/05/07 00:21:43;;;;;;;5.78;4.00;;;;;;;;;;5008051;28;20175;-81
2022/05/07 00:24:09;;;;;;;6.68;4.65;;;;;;;;;;4993224;28;20242;-81
2022/05/07 00:26:37;;;;;;;7.38;5.05;;;;;;;;;;4991887;28;20196;-82
2022/05/07 00:29:03;;;;;;;5.43;4.27;;;;;;;;;;4991377;28;20262;-81
2022/05/07 00:31:29;;;;;;;5.18;4.20;;;;;;;;;;4992043;28;20442;-81
2022/05/07 00:33:54;;;;;;;6.70;4.50;;;;;;;;;;5006665;28;20189;-81
2022/05/07 00:36:21;;;;;;;6.17;4.27;;;;;;;;;;5009688;28;20426;-81
2022/05/07 00:38:47;;;;;;;10.10;5.22;;;;;;;;;;4980945;28;20481;-81
2022/05/07 00:41:13;;;;;;;5.38;4.78;;;;;;;;;;5000656;28;20188;-81
2022/05/07 00:43:40;;;;;;;5.72;3.20;;;;;;;;;;5005777;28;20191;-81
2022/05/07 00:46:06;;;;;;;7.03;3.20;;;;;;;;;;4989398;28;20188;-81
2022/05/07 00:48:32;;;;;;;6.45;3.13;;;;;;;;;;4990288;28;20221;-81
2022/05/07 00:53:45;;;;;;;6.30;4.75;;;;;;;;;;5006253;28;20202;-82
2022/05/07 00:56:11;;;;;;;7.20;4.75;;;;;;;;;;4988860;28;20361;-81
2022/05/07 00:58:38;;;;;;;5.82;4.63;;;;;;;;;;4990937;28;20290;-81
2022/05/07 01:01:04;;;;;;;4.60;4.15;;;;;;;;;;5005997;28;20221;-80
2022/05/07 01:03:30;;;;;;;7.45;4.70;;;;;;;;;;5007849;28;20202;-81
2022/05/07 01:05:57;;;;;;;5.38;3.78;;;;;;;;;;5007418;28;20184;-82
2022/05/07 01:08:25;;;;;;;5.18;2.95;;;;;;;;;;5003614;28;20222;-82
2022/05/07 01:10:52;;;;;;;5.95;3.33;;;;;;;;;;4988360;28;20214;-82
2022/05/07 01:13:18;;;;;;;4.38;2.80;;;;;;;;;;5005051;28;20270;-82
2022/05/07 01:15:48;;;;;;;5.07;2.85;;;;;;;;;;4985814;28;20223;-82
2022/05/07 01:18:15;;;;;;;4.28;3.35;;;;;;;;;;4988649;28;20284;-82
2022/05/07 01:20:41;;;;;;;5.38;3.58;;;;;;;;;;4985700;28;20619;-82
2022/05/07 01:23:08;;;;;;;4.53;3.00;;;;;;;;;;5002957;28;20207;-81
2022/05/07 01:25:34;;;;;;;6.13;3.20;;;;;;;;;;4986307;28;20198;-81
2022/05/07 01:28:00;;;;;;;6.43;3.63;;;;;;;;;;4996924;28;20188;-82
2022/05/07 01:30:26;;;;;;;4.10;3.00;;;;;;;;;;4987825;28;20179;-82
2022/05/07 01:32:52;;;;;;;3.55;3.13;;;;;;;;;;4987827;28;20189;-81
2022/05/07 01:35:18;;;;;;;5.57;2.85;;;;;;;;;;4986877;28;20391;-81
2022/05/07 01:37:44;;;;;;;5.03;3.40;;;;;;;;;;5001937;28;20648;-82
2022/05/07 01:40:13;;;;;;;5.80;4.00;;;;;;;;;;4985358;28;20215;-82
2022/05/07 01:42:39;;;;;;;4.22;3.20;;;;;;;;;;4997592;28;20171;-82
2022/05/07 01:45:06;;;;;;;7.00;3.50;;;;;;;;;;4998349;28;20212;-82
2022/05/07 01:50:21;;;;;;;5.32;4.40;;;;;;;;;;4995463;28;20207;-82
2022/05/07 01:52:47;;;;;;;4.80;3.45;;;;;;;;;;4993573;28;20213;-81
2022/05/07 01:55:13;;;;;;;6.00;3.80;;;;;;;;;;4985065;28;20188;-81
2022/05/07 01:57:39;;;;;;;5.10;3.58;;;;;;;;;;4997354;28;20418;-82
2022/05/07 02:00:05;;;;;;;4.80;3.88;;;;;;;;;;4996762;28;20262;-82
2022/05/07 02:02:31;;;;;;;5.78;3.72;;;;;;;;;;4986263;28;20194;-82
2022/05/07 02:04:57;;;;;;;5.47;3.65;;;;;;;;;;4996945;28;20219;-81
2022/05/07 02:07:23;;;;;;;4.65;3.90;;;;;;;;;;4998689;28;20182;-81
2022/05/07 02:09:49;;;;;;;3.40;2.80;;;;;;;;;;4996022;28;20664;-82
2022/05/07 02:12:15;;;;;;;4.60;3.75;;;;;;;;;;4988232;28;20175;-82
2022/05/07 02:14:41;;;;;;;7.28;4.03;;;;;;;;;;4986257;28;20202;-82
2022/05/07 02:17:08;;;;;;;4.40;4.00;;;;;;;;;;4992181;28;20215;-81
2022/05/07 02:19:34;;;;;;;7.97;3.88;;;;;;;;;;4998770;28;20469;-81
2022/05/07 02:22:00;;;;;;;5.73;4.10;;;;;;;;;;4995920;28;20192;-82
2022/05/07 02:24:26;;;;;;;5.63;4.00;;;;;;;;;;4987869;28;20507;-81
2022/05/07 02:26:52;;;;;;;7.67;4.60;;;;;;;;;;4986358;28;20434;-82
2022/05/07 02:29:18;;;;;;;6.20;3.67;;;;;;;;;;4994518;28;20521;-81
2022/05/07 02:32:03;;;;;;;6.88;4.60;;;;;;;;;;4986186;28;20450;-82
2022/05/07 02:34:30;;;;;;;7.03;5.05;;;;;;;;;;4983719;28;20242;-82
2022/05/07 02:36:56;;;;;;;4.40;4.00;;;;;;;;;;4994767;28;20194;-82
2022/05/07 02:39:22;;;;;;;4.95;3.50;;;;;;;;;;4983705;28;20183;-82
2022/05/07 02:44:33;;;;;;;6.95;4.75;;;;;;;;;;4994807;28;20438;-82
2022/05/07 02:46:59;;;;;;;6.90;3.80;;;;;;;;;;4996456;28;20192;-82
2022/05/07 02:49:25;;;;;;;5.68;4.00;;;;;;;;;;4983648;28;20577;-82
2022/05/07 02:51:51;;;;;;;4.80;3.90;;;;;;;;;;4978319;28;20191;-82
2022/05/07 02:54:17;;;;;;;5.85;4.60;;;;;;;;;;4987538;28;20602;-82
2022/05/07 02:56:43;;;;;;;6.43;4.85;;;;;;;;;;4993258;28;20191;-82
2022/05/07 02:59:09;;;;;;;5.87;4.73;;;;;;;;;;4996100;28;20215;-82
2022/05/07 03:01:35;;;;;;;5.50;4.20;;;;;;;;;;4998255;28;20457;-82
2022/05/07 03:04:01;;;;;;;4.95;3.67;;;;;;;;;;4994844;28;20431;-82
2022/05/07 03:06:27;;;;;;;6.57;4.80;;;;;;;;;;4997019;28;20234;-82
2022/05/07 03:08:53;;;;;;;4.43;4.00;;;;;;;;;;4994336;28;20856;-82
2022/05/07 03:11:19;;;;;;;7.30;4.13;;;;;;;;;;4993433;28;20435;-82
2022/05/07 03:13:45;;;;;;;5.32;4.30;;;;;;;;;;4983705;28;20445;-82
2022/05/07 03:16:11;;;;;;;6.83;4.23;;;;;;;;;;4979403;28;20216;-83
2022/05/07 03:18:37;;;;;;;6.30;4.50;;;;;;;;;;4995915;28;20445;-82
2022/05/07 03:21:03;;;;;;;5.03;3.88;;;;;;;;;;4995112;28;20183;-82
2022/05/07 03:23:29;;;;;;;6.53;4.95;;;;;;;;;;4993907;28;20231;-82
2022/05/07 03:25:55;;;;;;;4.90;3.93;;;;;;;;;;4996934;28;20210;-82
2022/05/07 03:28:21;;;;;;;7.82;5.45;;;;;;;;;;4997708;28;20493;-82
2022/05/07 03:30:47;;;;;;;6.80;5.00;;;;;;;;;;4975126;28;20184;-82
2022/05/07 03:33:14;;;;;;;10.23;4.97;;;;;;;;;;5002226;28;20465;-82
2022/05/07 03:35:40;;;;;;;5.43;4.55;;;;;;;;;;4993280;28;20175;-82
2022/05/07 03:38:06;;;;;;;7.03;4.70;;;;;;;;;;4985382;28;20183;-82
2022/05/07 03:40:32;;;;;;;6.43;4.72;;;;;;;;;;4982838;28;20181;-83
2022/05/07 03:42:59;;;;;;;6.00;5.05;;;;;;;;;;4977064;28;20215;-82
2022/05/07 03:45:25;;;;;;;8.00;5.60;;;;;;;;;;4997303;28;20171;-81
2022/05/07 03:47:51;;;;;;;6.20;4.85;;;;;;;;;;4996280;28;20237;-82
2022/05/07 03:50:17;;;;;;;7.37;5.83;;;;;;;;;;4985668;28;20620;-83
2022/05/07 03:55:28;;;;;;;8.00;5.47;;;;;;;;;;4998168;28;20257;-82
2022/05/07 03:57:54;;;;;;;9.50;6.30;;;;;;;;;;4982893;28;20694;-82
2022/05/07 04:00:21;;;;;;;8.65;5.63;;;;;;;;;;4996409;28;20194;-82
2022/05/07 04:02:47;;;;;;;10.55;5.03;;;;;;;;;;4976977;28;20218;-82
2022/05/07 04:05:13;;;;;;;9.23;5.93;;;;;;;;;;4989628;28;20291;-82
2022/05/07 04:07:38;;;;;;;10.33;6.77;;;;;;;;;;4998594;28;21033;-82
2022/05/07 04:10:05;;;;;;;9.38;6.10;;;;;;;;;;4982957;28;20474;-82
2022/05/07 04:12:31;;;;;;;8.02;6.00;;;;;;;;;;4996149;28;20195;-82
2022/05/07 04:15:00;;;;;;;9.70;6.30;;;;;;;;;;4985028;28;20182;-82
2022/05/07 04:17:27;;;;;;;10.48;7.38;;;;;;;;;;4992174;28;20470;-82
2022/05/07 04:19:53;;;;;;;8.80;6.43;;;;;;;;;;4985386;28;20202;-83
2022/05/07 04:22:19;;;;;;;10.50;7.00;;;;;;;;;;4985644;28;20214;-82
2022/05/07 04:24:46;;;;;;;8.25;6.80;;;;;;;;;;4980833;28;20306;-82
2022/05/07 04:27:12;;;;;;;12.30;7.53;;;;;;;;;;4963209;28;20180;-82
2022/05/07 04:29:37;;;;;;;9.77;6.00;;;;;;;;;;4989539;28;20214;-81
2022/05/07 04:32:04;;;;;;;13.63;8.20;;;;;;;;;;4985341;28;20450;-82
2022/05/07 04:34:30;;;;;;;10.48;6.53;;;;;;;;;;4998850;28;20723;-82
2022/05/07 04:36:56;;;;;;;8.40;6.43;;;;;;;;;;4993425;28;20243;-81
2022/05/07 04:39:22;;;;;;;13.43;7.35;;;;;;;;;;4983258;28;20423;-82
2022/05/07 04:41:48;;;;;;;10.20;7.50;;;;;;;;;;4971314;28;20198;-81
2022/05/07 04:44:14;;;;;;;13.17;6.77;;;;;;;;;;4996891;28;20184;-81
2022/05/07 04:46:40;;;;;;;13.63;8.05;;;;;;;;;;4985630;28;20792;-82
2022/05/07 04:49:07;;;;;;;11.10;7.30;;;;;;;;;;4981684;28;20239;-82
2022/05/07 04:51:33;;;;;;;16.48;8.20;;;;;;;;;;4988344;28;20171;-82
2022/05/07 04:53:59;;;;;;;15.27;8.65;;;;;;;;;;5004746;28;20176;-82
2022/05/07 04:56:25;;;;;;;9.73;7.55;;;;;;;;;;4992065;28;20275;-82
2022/05/07 04:58:52;;;;;;;12.05;8.00;;;;;;;;;;4999965;28;20216;-81
2022/05/07 05:01:18;;;;;;;9.65;6.40;;;;;;;;;;4999285;28;20266;-82
2022/05/07 05:03:44;;;;;;;9.13;6.90;;;;;;;;;;4986912;28;20175;-82
2022/05/07 05:06:10;;;;;;;7.05;6.00;;;;;;;;;;4998739;28;20183;-82
2022/05/07 05:08:36;;;;;;;12.67;8.03;;;;;;;;;;4985416;28;20210;-81
2022/05/07 05:11:02;;;;;;;11.00;6.70;;;;;;;;;;4988638;28;20473;-82
2022/05/07 05:13:28;;;;;;;9.60;6.57;;;;;;;;;;4988419;28;20805;-82
2022/05/07 05:15:54;;;;;;;10.50;7.10;;;;;;;;;;4979263;28;20242;-82
2022/05/07 05:18:20;;;;;;;11.97;7.40;;;;;;;;;;4970599;28;20429;-82
2022/05/07 05:20:46;;;;;;;7.63;6.83;;;;;;;;;;4995677;28;20437;-82
2022/05/07 05:23:12;;;;;;;13.00;7.72;;;;;;;;;;4988217;28;20950;-82
2022/05/07 05:25:42;;;;;;;14.50;7.60;;;;;;;;;;4987003;28;20187;-82
2022/05/07 05:28:08;;;;;;;10.85;7.50;;;;;;;;;;4981656;28;20505;-82
2022/05/07 05:30:34;;;;;;;12.00;7.10;;;;;;;;;;4998260;28;20171;-82
2022/05/07 05:33:00;;;;;;;13.27;8.20;;;;;;;;;;4997104;28;20425;-82
2022/05/07 05:35:26;;;;;;;11.15;7.70;;;;;;;;;;4995404;28;20461;-82
2022/05/07 05:37:53;;;;;;;14.02;8.55;;;;;;;;;;4987640;28;20182;-82
2022/05/07 05:40:19;;;;;;;10.25;7.90;;;;;;;;;;5002441;28;20179;-82
2022/05/07 05:42:45;;;;;;;9.40;6.73;;;;;;;;;;4996966;28;20202;-82
2022/05/07 05:45:11;;;;;;;12.00;8.10;;;;;;;;;;4997941;28;20422;-82
2022/05/07 05:47:37;;;;;;;12.45;8.57;;;;;;;;;;4986912;28;20446;-82
2022/05/07 05:50:03;;;;;;;12.48;9.15;;;;;;;;;;4984546;28;20215;-82
2022/05/07 05:52:29;;;;;;;13.25;8.82;;;;;;;;;;4985866;28;20654;-82
2022/05/07 05:54:55;;;;;;;15.65;10.63;;;;;;;;;;4978322;28;20194;-82
2022/05/07 05:57:22;;;;;;;14.32;9.27;;;;;;;;;;4987157;28;20183;-82
2022/05/07 05:59:48;;;;;;;12.65;9.00;;;;;;;;;;5001868;28;20191;-82
2022/05/07 06:02:17;;;;;;;16.93;10.63;;;;;;;;;;4991967;28;20198;-81
2022/05/07 06:04:43;;;;;;;16.50;10.00;;;;;;;;;;4999411;28;20442;-82
2022/05/07 06:07:09;;;;;;;17.83;11.20;;;;;;;;;;4996231;28;20207;-82
2022/05/07 06:09:35;;;;;;;15.32;9.38;;;;;;;;;;5001808;28;20278;-82
2022/05/07 06:12:01;;;;;;;17.67;10.50;;;;;;;;;;4993863;28;20172;-82
2022/05/07 06:14:27;;;;;;;21.80;11.13;;;;;;;;;;5001365;28;20203;-83
2022/05/07 06:16:53;;;;;;;21.48;12.35;;;;;;;;;;4996123;28;20219;-81
2022/05/07 06:19:19;;;;;;;17.98;11.18;;;;;;;;;;4983208;28;20223;-82
2022/05/07 06:21:45;;;;;;;14.83;9.93;;;;;;;;;;4999684;28;20189;-87
2022/05/07 06:29:41;;;;;;;19.90;11.43;;;;;;;;;;5001161;28;20226;-83
2022/05/07 06:32:07;;;;;;;18.87;12.03;;;;;;;;;;4985386;28;20183;-86
2022/05/07 06:34:33;;;;;;;17.70;12.27;;;;;;;;;;4984532;28;20445;-86
2022/05/07 06:36:59;;;;;;;18.15;11.50;;;;;;;;;;4995702;28;20241;-82
2022/05/07 06:39:25;;;;;;;18.88;10.27;;;;;;;;;;4985616;28;20179;-86
2022/05/07 06:41:52;;;;;;;18.75;11.18;;;;;;;;;;4985695;28;20183;-83
2022/05/07 06:44:17;;;;;;;16.85;10.27;;;;;;;;;;4983182;28;20194;-87
2022/05/07 06:46:44;;;;;;;21.00;12.50;;;;;;;;;;4992359;28;20195;-85
2022/05/07 06:49:10;;;;;;;18.13;12.23;;;;;;;;;;4985938;28;20475;-85
2022/05/07 06:51:36;;;;;;;17.98;11.07;;;;;;;;;;4982466;28;20206;-85
2022/05/07 06:54:02;;;;;;;18.65;11.50;;;;;;;;;;4984269;28;20183;-86
2022/05/07 06:56:29;;;;;;;16.80;10.90;;;;;;;;;;4986014;28;20206;-88
2022/05/07 06:58:55;;;;;;;13.77;10.32;;;;;;;;;;4986364;28;20656;-86
2022/05/07 07:01:21;;;;;;;16.33;9.70;;;;;;;;;;4987883;28;20195;-85
2022/05/07 07:03:47;;;;;;;19.13;11.23;;;;;;;;;;4999225;28;20184;-84
2022/05/07 07:06:13;;;;;;;16.83;11.30;;;;;;;;;;4984270;28;20455;-84
2022/05/07 07:08:39;;;;;;;15.90;10.40;;;;;;;;;;5000438;28;20495;-85
2022/05/07 07:11:05;;;;;;;19.42;10.57;;;;;;;;;;4996380;28;20506;-86
2022/05/07 07:13:31;;;;;;;16.07;11.00;;;;;;;;;;4985242;28;20210;-84
2022/05/07 07:15:57;;;;;;;17.55;10.73;;;;;;;;;;5002892;28;20561;-83
2022/05/07 07:18:23;;;;;;;11.40;9.60;;;;;;;;;;4998203;28;20244;-82
2022/05/07 07:20:49;;;;;;;18.20;10.70;;;;;;;;;;4976459;28;20201;-83
2022/05/07 07:23:16;;;;;;;13.45;9.45;;;;;;;;;;4984664;28;20443;-83
2022/05/07 07:25:42;;;;;;;14.25;9.27;;;;;;;;;;4999426;28;20203;-84
2022/05/07 07:28:09;;;;;;;13.85;9.18;;;;;;;;;;4989415;28;20189;-83
2022/05/07 07:30:35;;;;;;;19.90;9.05;;;;;;;;;;4982685;28;20258;-82
2022/05/07 07:33:02;;;;;;;12.07;8.88;;;;;;;;;;4976035;28;20196;-83
2022/05/07 07:35:28;;;;;;;18.10;10.40;;;;;;;;;;4983240;28;20196;-81
2022/05/07 07:37:54;;;;;;;13.98;9.25;;;;;;;;;;4992275;28;20187;-83
2022/05/07 07:40:20;;;;;;;12.57;8.80;;;;;;;;;;4984490;28;20179;-82
2022/05/07 07:42:46;;;;;;;13.35;9.50;;;;;;;;;;5000639;28;20312;-84
2022/05/07 07:47:59;;;;;;;17.80;10.50;;;;;;;;;;4999449;28;20194;-81
2022/05/07 07:50:26;;;;;;;12.82;8.52;;;;;;;;;;4999716;28;20209;-80
2022/05/07 07:52:53;;;;;;;12.20;8.00;;;;;;;;;;4996247;28;20188;-80
2022/05/07 07:55:19;;;;;;;12.63;8.48;;;;;;;;;;4991735;28;20220;-81
2022/05/07 07:57:45;;;;;;;9.93;7.80;;;;;;;;;;4979982;28;20188;-81
2022/05/07 08:00:12;;;;;;;11.70;8.13;;;;;;;;;;5000839;28;20552;-82
2022/05/07 08:02:48;;;;;;;9.82;7.28;;;;;;;;;;4983181;28;20481;-81
2022/05/07 08:05:14;;;;;;;11.93;8.68;;;;;;;;;;4982088;28;20630;-82
2022/05/07 08:13:09;;;;;;;12.32;8.63;;;;;;;;;;4999080;28;20197;-81
2022/05/07 08:15:35;;;;;;;9.60;7.07;;;;;;;;;;4989721;28;20205;-81
2022/05/07 08:18:01;;;;;;;12.40;7.67;;;;;;;;;;5003671;28;20510;-81
2022/05/07 08:20:27;;;;;;;11.67;7.70;;;;;;;;;;4982961;28;20960;-81
2022/05/07 08:22:53;;;;;;;14.60;8.40;;;;;;;;;;4986384;28;20435;-81
2022/05/07 08:25:19;;;;;;;9.87;6.40;;;;;;;;;;4982262;28;20491;-82
2022/05/07 08:27:45;;;;;;;10.77;7.87;;;;;;;;;;4987502;28;20521;-81
2022/05/07 08:30:11;;;;;;;8.70;6.97;;;;;;;;;;5000841;28;20480;-81
2022/05/07 08:32:37;;;;;;;13.82;8.00;;;;;;;;;;5000056;28;20520;-82
2022/05/07 08:35:03;;;;;;;12.40;6.80;;;;;;;;;;4980680;28;20647;-82
2022/05/07 08:37:29;;;;;;;7.72;6.30;;;;;;;;;;4988998;28;20530;-84
2022/05/07 08:40:01;;;;;;;9.90;6.75;;;;;;;;;;4979685;28;20198;-83
2022/05/07 08:42:28;;;;;;;8.10;5.80;;;;;;;;;;5004078;28;20179;-82
2022/05/07 08:44:55;;;;;;;7.45;5.90;;;;;;;;;;4987453;28;20660;-83
2022/05/07 08:47:23;;;;;;;6.40;5.00;;;;;;;;;;4996367;28;20207;-85
2022/05/07 08:49:49;;;;;;;11.75;6.93;;;;;;;;;;4987361;28;20207;-84
2022/05/07 08:52:17;;;;;;;8.35;5.72;;;;;;;;;;5002880;28;20201;-84
2022/05/07 08:54:43;;;;;;;6.85;5.80;;;;;;;;;;5000318;28;20668;-82
2022/05/07 08:57:09;;;;;;;10.77;6.57;;;;;;;;;;4989591;28;20714;-85
2022/05/07 08:59:35;;;;;;;8.10;6.07;;;;;;;;;;5003991;28;20186;-83
2022/05/07 09:02:02;;;;;;;7.00;5.33;;;;;;;;;;4997258;28;20233;-82
2022/05/07 09:04:28;;;;;;;11.43;6.30;;;;;;;;;;4985580;28;20438;-84
2022/05/07 09:06:57;;;;;;;8.90;5.82;;;;;;;;;;4996380;28;20223;-87
2022/05/07 09:09:23;;;;;;;7.80;5.80;;;;;;;;;;4985237;28;20206;-87
2022/05/07 09:11:49;;;;;;;11.90;6.82;;;;;;;;;;4975220;28;20242;-86
2022/05/07 09:14:18;;;;;;;10.20;7.10;;;;;;;;;;4988526;28;20187;-83
2022/05/07 09:16:46;;;;;;;10.73;6.88;;;;;;;;;;5002781;28;20310;-84
2022/05/07 09:19:22;;;;;;;8.38;6.00;;;;;;;;;;5002919;28;20199;-86
2022/05/07 09:21:48;;;;;;;8.68;6.25;;;;;;;;;;4997949;28;20191;-86
2022/05/07 09:24:15;;;;;;;7.97;6.40;;;;;;;;;;5007309;28;20182;-91
2022/05/07 09:26:43;;;;;;;14.95;7.72;;;;;;;;;;5002790;28;20186;-83
2022/05/07 09:29:10;;;;;;;8.55;5.63;;;;;;;;;;4984007;28;20506;-84
2022/05/07 09:31:37;;;;;;;15.77;7.22;;;;;;;;;;4987034;28;20187;-83
2022/05/07 09:36:55;;;;;;;8.73;5.60;;;;;;;;;;4987841;28;20190;-86
2022/05/07 09:39:21;;;;;;;7.50;4.80;;;;;;;;;;5006426;28;20187;-86
2022/05/07 09:41:53;;;;;;;4.17;3.77;;;;;;;;;;4988135;28;20191;-85
2022/05/07 09:44:20;;;;;;;6.05;4.65;;;;;;;;;;5002737;28;20445;-85
2022/05/07 09:46:46;;;;;;;5.72;4.88;;;;;;;;;;5002051;28;20203;-87
2022/05/07 09:49:12;;;;;;;5.95;4.13;;;;;;;;;;4987390;28;20216;-84
2022/05/07 09:51:40;;;;;;;9.00;4.78;;;;;;;;;;4987221;28;20274;-85
2022/05/07 09:59:37;;;;;;;4.05;3.50;;;;;;;;;;5000126;28;20584;-85
2022/05/07 10:02:12;;;;;;;6.22;3.40;;;;;;;;;;5002661;28;20192;-87
2022/05/07 10:04:47;;;;;;;3.03;2.78;;;;;;;;;;4984823;28;20199;-87
2022/05/07 10:07:31;;;;;;;7.70;3.17;;;;;;;;;;5002250;28;20184;-85
2022/05/07 10:10:08;;;;;;;3.17;2.78;;;;;;;;;;4997945;28;20685;-89
2022/05/07 10:12:34;;;;;;;2.58;2.33;;;;;;;;;;4982618;28;20205;-85
2022/05/07 10:15:05;;;;;;;3.67;2.50;;;;;;;;;;4988532;28;20180;-91
2022/05/07 10:17:31;;;;;;;2.30;2.10;;;;;;;;;;4984675;28;20221;-86
2022/05/07 10:20:04;;;;;;;3.40;2.20;;;;;;;;;;5001945;28;20281;-85
2022/05/07 10:22:30;;;;;;;4.28;3.35;;;;;;;;;;4987029;28;20804;-85
2022/05/07 10:25:07;;;;;;;4.88;3.17;;;;;;;;;;4986605;28;20196;-86
2022/05/07 10:27:35;;;;;;;3.30;3.10;;;;;;;;;;5000275;28;20190;-83
2022/05/07 10:30:13;;;;;;;2.40;2.20;;;;;;;;;;4994087;28;20691;-83
2022/05/07 10:32:58;;;;;;;5.22;3.35;;;;;;;;;;5000950;28;20180;-83
2022/05/07 10:35:40;;;;;;;3.35;3.05;;;;;;;;;;5001181;28;20670;-83
2022/05/07 10:38:07;;;;;;;3.33;3.03;;;;;;;;;;4996599;28;20180;-82
2022/05/07 10:40:33;;;;;;;3.28;2.97;;;;;;;;;;4982811;28;20257;-83
2022/05/07 10:42:59;;;;;;;3.83;3.20;;;;;;;;;;4985449;28;20196;-83
2022/05/07 10:45:25;;;;;;;5.90;3.20;;;;;;;;;;5003768;28;20438;-82
2022/05/07 10:47:54;;;;;;;6.00;4.63;;;;;;;;;;5002279;28;20276;-82
2022/05/07 10:50:24;;;;;;;3.92;3.63;;;;;;;;;;4986380;28;20467;-83
2022/05/07 10:52:57;;;;;;;4.22;3.72;;;;;;;;;;5001792;28;20185;-84
2022/05/07 10:55:27;;;;;;;5.72;3.38;;;;;;;;;;4990909;28;20180;-83
2022/05/07 10:57:53;;;;;;;7.10;4.93;;;;;;;;;;5000699;28;20181;-82
2022/05/07 11:00:20;;;;;;;5.55;3.70;;;;;;;;;;4993485;28;20192;-83
2022/05/07 11:02:48;;;;;;;6.65;4.53;;;;;;;;;;5000048;28;20255;-83
2022/05/07 11:05:15;;;;;;;8.05;3.75;;;;;;;;;;4982780;28;20286;-83
2022/05/07 11:07:42;;;;;;;4.28;3.88;;;;;;;;;;4984245;28;20331;-84
2022/05/07 11:10:09;;;;;;;5.35;3.67;;;;;;;;;;4995618;28;20202;-82
2022/05/07 11:12:35;;;;;;;4.75;3.50;;;;;;;;;;4979885;28;20182;-83
2022/05/07 11:15:04;;;;;;;7.10;4.18;;;;;;;;;;5000672;28;20271;-83
2022/05/07 11:17:32;;;;;;;7.30;4.85;;;;;;;;;;4984686;28;20442;-83
2022/05/07 11:19:58;;;;;;;3.38;3.08;;;;;;;;;;5000118;28;20193;-83
2022/05/07 11:22:29;;;;;;;4.00;3.60;;;;;;;;;;5001701;28;20193;-84
2022/05/07 11:24:56;;;;;;;3.67;3.17;;;;;;;;;;4995579;28;20189;-82
2022/05/07 11:27:26;;;;;;;5.38;3.35;;;;;;;;;;4982862;28;20188;-83
2022/05/07 11:29:53;;;;;;;3.60;3.30;;;;;;;;;;4997512;28;20233;-81
2022/05/07 11:32:19;;;;;;;6.68;3.70;;;;;;;;;;4982407;28;20183;-81
2022/05/07 11:34:45;;;;;;;4.00;3.10;;;;;;;;;;4999015;28;20258;-83
2022/05/07 11:37:11;;;;;;;5.88;3.33;;;;;;;;;;5000397;28;20436;-82
2022/05/07 11:39:47;;;;;;;3.90;3.40;;;;;;;;;;4984548;28;20655;-82
2022/05/07 11:42:25;;;;;;;4.30;3.90;;;;;;;;;;5001526;28;20954;-82
2022/05/07 11:47:53;;;;;;;5.37;3.97;;;;;;;;;;4939607;29;20205;-79
2022/05/07 11:50:24;;;;;;;4.63;2.73;;;;;;;;;;4925862;29;20509;-82
2022/05/07 11:52:50;;;;;;;4.28;3.13;;;;;;;;;;4931543;29;20446;-83
2022/05/07 11:55:17;;;;;;;2.95;2.67;;;;;;;;;;4939754;29;20232;-82
2022/05/07 11:57:46;;;;;;;3.65;3.22;;;;;;;;;;4924310;29;20179;-83
2022/05/07 12:00:13;;;;;;;3.50;2.90;;;;;;;;;;4942568;29;20335;-82
2022/05/07 12:02:40;;;;;;;3.17;2.42;;;;;;;;;;4939875;29;20246;-82
2022/05/07 12:05:06;;;;;;;3.27;2.63;;;;;;;;;;4940655;29;20203;-82
2022/05/07 12:07:42;;;;;;;3.20;2.90;;;;;;;;;;4940535;29;20508;-82
2022/05/07 12:10:08;;;;;;;3.23;2.77;;;;;;;;;;4941062;29;20587;-82
2022/05/07 12:12:34;;;;;;;2.97;2.70;;;;;;;;;;4942765;29;20459;-82
2022/05/07 12:15:00;;;;;;;4.63;2.63;;;;;;;;;;4940896;29;20403;-82
2022/05/07 12:20:11;;;;;;;3.00;2.47;;;;;;;;;;4938834;29;20454;-81
2022/05/07 12:30:50;;;;;;;2.70;2.50;;;;;;;;;;5000254;28;20438;-83
2022/05/07 12:33:16;;;;;;;3.93;2.53;;;;;;;;;;5002694;28;20417;-83
2022/05/07 12:35:43;;;;;;;2.83;2.63;;;;;;;;;;5000665;28;20444;-82
2022/05/07 12:38:10;;;;;;;2.90;2.70;;;;;;;;;;4985347;28;20429;-82
2022/05/07 12:40:36;;;;;;;3.80;2.60;;;;;;;;;;4998987;28;20452;-83
2022/05/07 12:43:02;;;;;;;4.40;2.90;;;;;;;;;;5001003;28;20480;-83
2022/05/07 12:45:28;;;;;;;3.30;3.00;;;;;;;;;;4985494;28;20424;-82
2022/05/07 12:47:54;;;;;;;2.83;2.37;;;;;;;;;;5000393;28;20422;-83
2022/05/07 12:50:20;;;;;;;3.47;3.17;;;;;;;;;;4998344;28;20444;-84
2022/05/07 12:52:46;;;;;;;3.30;2.90;;;;;;;;;;4994019;28;20413;-83
2022/05/07 12:55:12;;;;;;;4.50;2.53;;;;;;;;;;4996678;28;20436;-82
2022/05/07 12:57:38;;;;;;;5.30;2.90;;;;;;;;;;5002243;28;20446;-83
2022/05/07 13:00:05;;;;;;;3.00;2.80;;;;;;;;;;4984202;28;20456;-84
2022/05/07 13:02:31;;;;;;;4.23;2.70;;;;;;;;;;4984113;28;20477;-83
2022/05/07 13:04:57;;;;;;;2.67;2.15;;;;;;;;;;4992851;28;20453;-82
2022/05/07 13:07:23;;;;;;;2.67;2.30;;;;;;;;;;5002592;28;20187;-81
2022/05/07 13:09:49;;;;;;;2.73;2.47;;;;;;;;;;5003075;28;20468;-82
2022/05/07 13:12:16;;;;;;;2.90;2.53;;;;;;;;;;5004815;28;20762;-82
2022/05/07 13:14:42;;;;;;;3.27;2.40;;;;;;;;;;4988524;28;20436;-82
2022/05/07 13:17:08;;;;;;;3.30;2.40;;;;;;;;;;5002625;28;20477;-82
2022/05/07 13:19:34;;;;;;;3.57;2.27;;;;;;;;;;5002806;28;20438;-82
2022/05/07 13:22:01;;;;;;;2.40;2.23;;;;;;;;;;5004480;28;20477;-82
2022/05/07 13:24:27;;;;;;;2.47;2.27;;;;;;;;;;4988747;28;20473;-82
2022/05/07 13:26:53;;;;;;;3.20;2.20;;;;;;;;;;5000338;28;20424;-82
2022/05/07 13:29:19;;;;;;;2.60;1.57;;;;;;;;;;4998357;28;20455;-82
2022/05/07 13:31:45;;;;;;;2.20;2.00;;;;;;;;;;5001807;28;20494;-83
2022/05/07 13:34:11;;;;;;;2.50;2.30;;;;;;;;;;4988208;28;20426;-83
2022/05/07 13:36:37;;;;;;;3.33;2.43;;;;;;;;;;5004628;28;20396;-82
2022/05/07 13:39:04;;;;;;;3.30;2.10;;;;;;;;;;5004006;28;20459;-82
2022/05/07 13:41:30;;;;;;;3.60;2.00;;;;;;;;;;5003522;28;20397;-82
2022/05/07 13:43:56;;;;;;;2.73;2.47;;;;;;;;;;4987895;28;20412;-82
2022/05/07 13:46:23;;;;;;;3.20;2.43;;;;;;;;;;5002867;28;20430;-82
2022/05/07 13:48:49;;;;;;;2.50;2.30;;;;;;;;;;5002857;28;20453;-82
2022/05/07 13:51:18;;;;;;;2.33;1.90;;;;;;;;;;5005000;28;20389;-84
2022/05/07 13:53:44;;;;;;;2.37;2.17;;;;;;;;;;4987397;28;20504;-82
2022/05/07 13:56:10;;;;;;;4.33;2.60;;;;;;;;;;5002544;28;20433;-82
2022/05/07 13:58:41;;;;;;;2.20;2.00;;;;;;;;;;5002837;28;20652;-83
2022/05/07 14:01:07;;;;;;;2.90;2.37;;;;;;;;;;5002472;28;20402;-83
2022/05/07 14:03:33;;;;;;;3.60;2.40;;;;;;;;;;4986166;28;20430;-82
2022/05/07 14:05:59;;;;;;;2.37;2.17;;;;;;;;;;5004209;28;20422;-82
2022/05/07 14:08:27;;;;;;;4.83;2.67;;;;;;;;;;5003432;28;20458;-82
2022/05/07 14:10:53;;;;;;;2.40;2.08;;;;;;;;;;4987021;28;20434;-81
2022/05/07 14:13:19;;;;;;;4.70;3.30;;;;;;;;;;4987192;28;20183;-82
2022/05/07 14:15:45;;;;;;;3.00;2.03;;;;;;;;;;5003532;28;20411;-84
2022/05/07 14:18:11;;;;;;;3.43;2.43;;;;;;;;;;4988094;28;20436;-82
2022/05/07 14:20:37;;;;;;;3.40;2.30;;;;;;;;;;5001918;28;20512;-83
2022/05/07 14:23:03;;;;;;;2.25;2.10;;;;;;;;;;5001998;28;20558;-82
2022/05/07 14:25:29;;;;;;;2.30;2.10;;;;;;;;;;4987384;28;20209;-81
2022/05/07 14:27:55;;;;;;;3.78;2.33;;;;;;;;;;4987292;28;20211;-82
2022/05/07 14:30:21;;;;;;;3.30;2.40;;;;;;;;;;4988099;28;20714;-82
2022/05/07 14:32:47;;;;;;;3.97;2.22;;;;;;;;;;5002363;28;20448;-82
2022/05/07 14:35:14;;;;;;;6.57;3.53;;;;;;;;;;5001294;28;20217;-81
2022/05/07 14:37:40;;;;;;;9.90;4.13;;;;;;;;;;4986448;28;20443;-80
2022/05/07 14:42:53;;;;;;;30.77;8.05;;;;;;;;;;5002458;28;20454;-78
2022/05/07 14:45:19;;;;;;;9.55;4.25;;;;;;;;;;5005128;28;20175;-77
2022/05/07 14:47:45;;;;;;;19.13;5.50;;;;;;;;;;4986818;28;20198;-78
2022/05/07 14:50:11;;;;;;;10.17;4.27;;;;;;;;;;4986489;28;20206;-80
2022/05/07 14:52:37;;;;;;;12.40;4.43;;;;;;;;;;5000449;28;20441;-78
2022/05/07 14:55:03;;;;;;;7.87;4.47;;;;;;;;;;5001205;28;20215;-78
2022/05/07 14:57:29;;;;;;;5.80;3.95;;;;;;;;;;5004437;28;20885;-78
2022/05/07 14:59:56;;;;;;;10.00;4.78;;;;;;;;;;5002049;28;20222;-78
2022/05/07 15:02:22;;;;;;;5.20;4.20;;;;;;;;;;5000188;28;20195;-77
2022/05/07 15:04:48;;;;;;;13.53;4.80;;;;;;;;;;5000978;28;20187;-77
2022/05/07 15:07:14;;;;;;;7.77;5.37;;;;;;;;;;4986152;28;20442;-77
2022/05/07 15:12:25;;;;;;;8.27;5.07;;;;;;;;;;5004883;28;20414;-76
2022/05/07 15:14:51;;;;;;;9.27;4.82;;;;;;;;;;5002749;28;20183;-77
2022/05/07 15:17:17;;;;;;;11.33;5.60;;;;;;;;;;4985909;28;20229;-76
2022/05/07 15:19:43;;;;;;;9.32;5.07;;;;;;;;;;5000945;28;20458;-76
2022/05/07 15:22:09;;;;;;;8.82;4.90;;;;;;;;;;5000121;28;20194;-76
2022/05/07 15:24:35;;;;;;;7.53;4.07;;;;;;;;;;5003522;28;20182;-77
2022/05/07 15:27:01;;;;;;;6.37;4.50;;;;;;;;;;4984398;28;20183;-76
2022/05/07 15:29:27;;;;;;;5.33;3.80;;;;;;;;;;4985582;28;20469;-76
2022/05/07 15:37:23;;;;;;;6.72;4.10;;;;;;;;;;5000637;28;20296;-77